sensor_id;sensor_type;location;lat;lon;timestamp;P1;durP1;ratioP1;P2;durP2;ratioP2
7971;SDS011;4031;49.758;6.120;2023-08-30T00:00:17;6.23;;;5.63;;
7971;SDS011;4031;49.758;6.120;2023-08-30T00:02:44;6.47;;;5.60;;
7971;SDS011;4031;49.758;6.120;2023-08-30T00:05:10;6.10;;;5.60;;
7971;SDS011;4031;49.758;6.120;2023-08-30T00:07:36;6.90;;;6.20;;
7971;SDS011;4031;49.758;6.120;2023-08-30T00:10:02;8.43;;;5.70;;
7971;SDS011;4031;49.758;6.120;2023-08-30T00:12:28;6.67;;;6.07;;
7971;SDS011;4031;49.758;6.120;2023-08-30T00:14:54;7.37;;;6.67;;
7971;SDS011;4031;49.758;6.120;2023-08-30T00:17:21;7.67;;;5.30;;
7971;SDS011;4031;49.758;6.120;2023-08-30T00:19:47;9.63;;;6.47;;
7971;SDS011;4031;49.758;6.120;2023-08-30T00:22:13;7.60;;;6.53;;
7971;SDS011;4031;49.758;6.120;2023-08-30T00:24:39;6.30;;;5.60;;
7971;SDS011;4031;49.758;6.120;2023-08-30T00:27:05;6.77;;;6.17;;
7971;SDS011;4031;49.758;6.120;2023-08-30T00:29:31;7.83;;;5.97;;
7971;SDS011;4031;49.758;6.120;2023-08-30T00:31:57;6.97;;;5.33;;
7971;SDS011;4031;49.758;6.120;2023-08-30T00:34:22;8.10;;;6.67;;
7971;SDS011;4031;49.758;6.120;2023-08-30T00:36:48;6.80;;;6.10;;
7971;SDS011;4031;49.758;6.120;2023-08-30T00:39:14;6.07;;;5.47;;
7971;SDS011;4031;49.758;6.120;2023-08-30T00:41:40;6.10;;;5.50;;
7971;SDS011;4031;49.758;6.120;2023-08-30T00:44:06;6.03;;;5.50;;
7971;SDS011;4031;49.758;6.120;2023-08-30T00:46:34;5.70;;;5.17;;
7971;SDS011;4031;49.758;6.120;2023-08-30T00:49:01;6.57;;;5.97;;
7971;SDS011;4031;49.758;6.120;2023-08-30T00:51:27;6.20;;;5.53;;
7971;SDS011;4031;49.758;6.120;2023-08-30T00:53:56;5.63;;;5.13;;
7971;SDS011;4031;49.758;6.120;2023-08-30T00:56:27;8.07;;;6.60;;
7971;SDS011;4031;49.758;6.120;2023-08-30T00:58:54;7.10;;;6.40;;
7971;SDS011;4031;49.758;6.120;2023-08-30T01:01:20;5.90;;;5.30;;
7971;SDS011;4031;49.758;6.120;2023-08-30T01:03:46;7.70;;;6.23;;
7971;SDS011;4031;49.758;6.120;2023-08-30T01:06:12;7.67;;;5.90;;
7971;SDS011;4031;49.758;6.120;2023-08-30T01:08:41;11.87;;;6.83;;
7971;SDS011;4031;49.758;6.120;2023-08-30T01:13:56;6.93;;;6.23;;
7971;SDS011;4031;49.758;6.120;2023-08-30T01:16:27;10.47;;;5.80;;
7971;SDS011;4031;49.758;6.120;2023-08-30T01:18:54;7.93;;;6.33;;
7971;SDS011;4031;49.758;6.120;2023-08-30T01:21:41;10.30;;;8.27;;
7971;SDS011;4031;49.758;6.120;2023-08-30T01:24:23;10.77;;;7.17;;
7971;SDS011;4031;49.758;6.120;2023-08-30T01:27:37;9.23;;;6.07;;
7971;SDS011;4031;49.758;6.120;2023-08-30T01:30:06;11.00;;;6.63;;
7971;SDS011;4031;49.758;6.120;2023-08-30T01:32:34;9.70;;;7.40;;
7971;SDS011;4031;49.758;6.120;2023-08-30T01:35:03;12.50;;;7.83;;
7971;SDS011;4031;49.758;6.120;2023-08-30T01:37:30;9.63;;;7.43;;
7971;SDS011;4031;49.758;6.120;2023-08-30T01:39:58;8.53;;;6.53;;
7971;SDS011;4031;49.758;6.120;2023-08-30T01:42:25;8.97;;;6.87;;
7971;SDS011;4031;49.758;6.120;2023-08-30T01:44:51;9.23;;;7.20;;
7971;SDS011;4031;49.758;6.120;2023-08-30T01:47:24;10.03;;;7.67;;
7971;SDS011;4031;49.758;6.120;2023-08-30T01:49:52;12.70;;;6.67;;
7971;SDS011;4031;49.758;6.120;2023-08-30T01:52:19;8.90;;;7.00;;
7971;SDS011;4031;49.758;6.120;2023-08-30T01:54:46;9.80;;;6.90;;
7971;SDS011;4031;49.758;6.120;2023-08-30T01:57:13;10.07;;;7.10;;
7971;SDS011;4031;49.758;6.120;2023-08-30T01:59:39;11.40;;;7.10;;
7971;SDS011;4031;49.758;6.120;2023-08-30T02:02:04;13.50;;;7.70;;
7971;SDS011;4031;49.758;6.120;2023-08-30T02:04:30;11.90;;;8.20;;
7971;SDS011;4031;49.758;6.120;2023-08-30T02:07:01;8.20;;;7.10;;
7971;SDS011;4031;49.758;6.120;2023-08-30T02:09:40;10.90;;;6.70;;
7971;SDS011;4031;49.758;6.120;2023-08-30T02:12:16;7.53;;;6.63;;
7971;SDS011;4031;49.758;6.120;2023-08-30T02:14:47;11.50;;;7.70;;
7971;SDS011;4031;49.758;6.120;2023-08-30T02:17:14;10.40;;;7.73;;
7971;SDS011;4031;49.758;6.120;2023-08-30T02:19:42;11.90;;;7.37;;
7971;SDS011;4031;49.758;6.120;2023-08-30T02:22:09;10.30;;;7.10;;
7971;SDS011;4031;49.758;6.120;2023-08-30T02:24:35;7.50;;;5.87;;
7971;SDS011;4031;49.758;6.120;2023-08-30T02:27:01;8.83;;;6.77;;
7971;SDS011;4031;49.758;6.120;2023-08-30T02:29:27;7.80;;;6.93;;
7971;SDS011;4031;49.758;6.120;2023-08-30T02:31:52;17.73;;;7.80;;
7971;SDS011;4031;49.758;6.120;2023-08-30T02:34:18;9.83;;;7.00;;
7971;SDS011;4031;49.758;6.120;2023-08-30T02:36:44;15.57;;;9.23;;
7971;SDS011;4031;49.758;6.120;2023-08-30T02:39:11;16.87;;;8.53;;
7971;SDS011;4031;49.758;6.120;2023-08-30T02:41:39;14.40;;;8.80;;
7971;SDS011;4031;49.758;6.120;2023-08-30T02:44:05;16.93;;;8.20;;
7971;SDS011;4031;49.758;6.120;2023-08-30T02:46:33;16.90;;;9.23;;
7971;SDS011;4031;49.758;6.120;2023-08-30T02:48:59;18.90;;;9.63;;
7971;SDS011;4031;49.758;6.120;2023-08-30T02:51:24;36.10;;;13.37;;
7971;SDS011;4031;49.758;6.120;2023-08-30T02:53:50;53.37;;;15.43;;
7971;SDS011;4031;49.758;6.120;2023-08-30T02:56:16;20.40;;;10.37;;
7971;SDS011;4031;49.758;6.120;2023-08-30T02:58:42;16.50;;;9.00;;
7971;SDS011;4031;49.758;6.120;2023-08-30T03:01:07;46.60;;;11.60;;
7971;SDS011;4031;49.758;6.120;2023-08-30T03:03:33;35.00;;;9.83;;
7971;SDS011;4031;49.758;6.120;2023-08-30T03:05:59;21.90;;;10.30;;
7971;SDS011;4031;49.758;6.120;2023-08-30T03:08:26;37.40;;;12.57;;
7971;SDS011;4031;49.758;6.120;2023-08-30T03:10:52;26.47;;;9.57;;
7971;SDS011;4031;49.758;6.120;2023-08-30T03:13:18;29.80;;;9.83;;
7971;SDS011;4031;49.758;6.120;2023-08-30T03:15:44;39.80;;;10.10;;
7971;SDS011;4031;49.758;6.120;2023-08-30T03:18:09;48.57;;;10.27;;
7971;SDS011;4031;49.758;6.120;2023-08-30T03:20:35;60.77;;;11.33;;
7971;SDS011;4031;49.758;6.120;2023-08-30T03:23:01;20.33;;;7.73;;
7971;SDS011;4031;49.758;6.120;2023-08-30T03:25:30;22.27;;;7.73;;
7971;SDS011;4031;49.758;6.120;2023-08-30T03:27:55;22.43;;;8.77;;
7971;SDS011;4031;49.758;6.120;2023-08-30T03:30:21;23.33;;;7.27;;
7971;SDS011;4031;49.758;6.120;2023-08-30T03:32:47;21.33;;;8.67;;
7971;SDS011;4031;49.758;6.120;2023-08-30T03:35:12;26.43;;;9.57;;
7971;SDS011;4031;49.758;6.120;2023-08-30T03:37:41;48.80;;;11.30;;
7971;SDS011;4031;49.758;6.120;2023-08-30T03:40:07;26.60;;;8.80;;
7971;SDS011;4031;49.758;6.120;2023-08-30T03:42:34;25.13;;;7.77;;
7971;SDS011;4031;49.758;6.120;2023-08-30T03:45:00;26.63;;;7.90;;
7971;SDS011;4031;49.758;6.120;2023-08-30T03:47:26;26.33;;;8.70;;
7971;SDS011;4031;49.758;6.120;2023-08-30T03:49:51;27.33;;;8.57;;
7971;SDS011;4031;49.758;6.120;2023-08-30T03:52:17;15.60;;;7.70;;
7971;SDS011;4031;49.758;6.120;2023-08-30T03:54:43;47.63;;;10.77;;
7971;SDS011;4031;49.758;6.120;2023-08-30T03:57:08;21.97;;;8.40;;
7971;SDS011;4031;49.758;6.120;2023-08-30T03:59:34;20.30;;;8.70;;
7971;SDS011;4031;49.758;6.120;2023-08-30T04:02:00;34.03;;;10.37;;
7971;SDS011;4031;49.758;6.120;2023-08-30T04:04:26;35.43;;;10.40;;
7971;SDS011;4031;49.758;6.120;2023-08-30T04:06:51;25.93;;;9.13;;
7971;SDS011;4031;49.758;6.120;2023-08-30T04:09:17;47.07;;;10.63;;
7971;SDS011;4031;49.758;6.120;2023-08-30T04:11:43;78.23;;;15.33;;
7971;SDS011;4031;49.758;6.120;2023-08-30T04:14:09;55.83;;;11.73;;
7971;SDS011;4031;49.758;6.120;2023-08-30T04:16:35;31.60;;;9.50;;
7971;SDS011;4031;49.758;6.120;2023-08-30T04:19:00;55.63;;;12.47;;
7971;SDS011;4031;49.758;6.120;2023-08-30T04:21:26;56.50;;;11.93;;
7971;SDS011;4031;49.758;6.120;2023-08-30T04:23:52;74.67;;;12.53;;
7971;SDS011;4031;49.758;6.120;2023-08-30T04:26:17;39.17;;;10.10;;
7971;SDS011;4031;49.758;6.120;2023-08-30T04:28:43;30.30;;;9.50;;
7971;SDS011;4031;49.758;6.120;2023-08-30T04:31:09;33.70;;;9.60;;
7971;SDS011;4031;49.758;6.120;2023-08-30T04:33:34;23.63;;;6.80;;
7971;SDS011;4031;49.758;6.120;2023-08-30T04:36:00;27.10;;;7.83;;
7971;SDS011;4031;49.758;6.120;2023-08-30T04:38:28;22.50;;;8.40;;
7971;SDS011;4031;49.758;6.120;2023-08-30T04:40:58;8.07;;;6.50;;
7971;SDS011;4031;49.758;6.120;2023-08-30T04:43:27;9.73;;;6.37;;
7971;SDS011;4031;49.758;6.120;2023-08-30T04:45:53;12.13;;;7.00;;
7971;SDS011;4031;49.758;6.120;2023-08-30T04:48:19;25.27;;;7.47;;
7971;SDS011;4031;49.758;6.120;2023-08-30T04:50:45;20.50;;;7.37;;
7971;SDS011;4031;49.758;6.120;2023-08-30T04:53:10;8.27;;;6.27;;
7971;SDS011;4031;49.758;6.120;2023-08-30T04:55:36;13.40;;;6.83;;
7971;SDS011;4031;49.758;6.120;2023-08-30T04:58:02;15.23;;;7.70;;
7971;SDS011;4031;49.758;6.120;2023-08-30T05:00:28;14.63;;;6.90;;
7971;SDS011;4031;49.758;6.120;2023-08-30T05:02:53;20.10;;;8.50;;
7971;SDS011;4031;49.758;6.120;2023-08-30T05:05:19;20.33;;;7.87;;
7971;SDS011;4031;49.758;6.120;2023-08-30T05:07:45;18.63;;;8.17;;
7971;SDS011;4031;49.758;6.120;2023-08-30T05:10:10;35.53;;;9.30;;
7971;SDS011;4031;49.758;6.120;2023-08-30T05:12:37;42.17;;;11.07;;
7971;SDS011;4031;49.758;6.120;2023-08-30T05:15:03;73.87;;;14.50;;
7971;SDS011;4031;49.758;6.120;2023-08-30T05:17:29;79.33;;;13.67;;
7971;SDS011;4031;49.758;6.120;2023-08-30T05:19:55;63.07;;;11.73;;
7971;SDS011;4031;49.758;6.120;2023-08-30T05:22:20;73.87;;;13.97;;
7971;SDS011;4031;49.758;6.120;2023-08-30T05:24:46;74.43;;;14.70;;
7971;SDS011;4031;49.758;6.120;2023-08-30T05:27:12;130.53;;;18.33;;
7971;SDS011;4031;49.758;6.120;2023-08-30T05:29:39;39.30;;;12.00;;
7971;SDS011;4031;49.758;6.120;2023-08-30T05:32:05;27.67;;;9.57;;
7971;SDS011;4031;49.758;6.120;2023-08-30T05:34:31;31.10;;;9.33;;
7971;SDS011;4031;49.758;6.120;2023-08-30T05:36:57;26.80;;;9.63;;
7971;SDS011;4031;49.758;6.120;2023-08-30T05:39:22;21.20;;;9.37;;
7971;SDS011;4031;49.758;6.120;2023-08-30T05:41:48;37.77;;;9.87;;
7971;SDS011;4031;49.758;6.120;2023-08-30T05:44:14;31.00;;;10.40;;
7971;SDS011;4031;49.758;6.120;2023-08-30T05:46:40;29.13;;;9.90;;
7971;SDS011;4031;49.758;6.120;2023-08-30T05:49:05;36.40;;;10.47;;
7971;SDS011;4031;49.758;6.120;2023-08-30T05:51:31;19.70;;;8.93;;
7971;SDS011;4031;49.758;6.120;2023-08-30T05:53:57;14.63;;;7.67;;
7971;SDS011;4031;49.758;6.120;2023-08-30T05:56:23;63.63;;;12.60;;
7971;SDS011;4031;49.758;6.120;2023-08-30T05:58:48;51.90;;;11.47;;
7971;SDS011;4031;49.758;6.120;2023-08-30T06:01:17;25.23;;;9.77;;
7971;SDS011;4031;49.758;6.120;2023-08-30T06:03:44;29.57;;;10.23;;
7971;SDS011;4031;49.758;6.120;2023-08-30T06:06:11;36.83;;;10.00;;
7971;SDS011;4031;49.758;6.120;2023-08-30T06:08:38;26.73;;;9.70;;
7971;SDS011;4031;49.758;6.120;2023-08-30T06:11:03;28.50;;;10.07;;
7971;SDS011;4031;49.758;6.120;2023-08-30T06:13:29;28.20;;;9.23;;
7971;SDS011;4031;49.758;6.120;2023-08-30T06:15:55;46.47;;;11.33;;
7971;SDS011;4031;49.758;6.120;2023-08-30T06:18:20;36.40;;;10.37;;
7971;SDS011;4031;49.758;6.120;2023-08-30T06:20:46;47.83;;;12.03;;
7971;SDS011;4031;49.758;6.120;2023-08-30T06:23:13;31.27;;;10.20;;
7971;SDS011;4031;49.758;6.120;2023-08-30T06:25:40;32.40;;;10.60;;
7971;SDS011;4031;49.758;6.120;2023-08-30T06:28:06;73.80;;;11.97;;
7971;SDS011;4031;49.758;6.120;2023-08-30T06:30:32;34.33;;;9.30;;
7971;SDS011;4031;49.758;6.120;2023-08-30T06:32:57;45.23;;;11.80;;
7971;SDS011;4031;49.758;6.120;2023-08-30T06:35:23;38.63;;;10.57;;
7971;SDS011;4031;49.758;6.120;2023-08-30T06:37:49;38.73;;;10.63;;
7971;SDS011;4031;49.758;6.120;2023-08-30T06:40:15;64.17;;;11.00;;
7971;SDS011;4031;49.758;6.120;2023-08-30T06:42:41;29.90;;;9.47;;
7971;SDS011;4031;49.758;6.120;2023-08-30T06:45:07;12.63;;;9.17;;
7971;SDS011;4031;49.758;6.120;2023-08-30T06:47:33;11.40;;;8.83;;
7971;SDS011;4031;49.758;6.120;2023-08-30T06:49:59;11.43;;;7.63;;
7971;SDS011;4031;49.758;6.120;2023-08-30T06:52:26;19.00;;;8.13;;
7971;SDS011;4031;49.758;6.120;2023-08-30T06:54:51;11.17;;;7.83;;
7971;SDS011;4031;49.758;6.120;2023-08-30T06:57:17;13.90;;;7.47;;
7971;SDS011;4031;49.758;6.120;2023-08-30T06:59:43;11.60;;;7.60;;
7971;SDS011;4031;49.758;6.120;2023-08-30T07:02:09;8.47;;;6.40;;
7971;SDS011;4031;49.758;6.120;2023-08-30T07:04:34;11.07;;;7.17;;
7971;SDS011;4031;49.758;6.120;2023-08-30T07:07:00;8.33;;;7.00;;
7971;SDS011;4031;49.758;6.120;2023-08-30T07:09:27;10.07;;;6.37;;
7971;SDS011;4031;49.758;6.120;2023-08-30T07:11:57;12.43;;;6.33;;
7971;SDS011;4031;49.758;6.120;2023-08-30T07:14:23;6.63;;;5.93;;
7971;SDS011;4031;49.758;6.120;2023-08-30T07:16:49;11.27;;;6.80;;
7971;SDS011;4031;49.758;6.120;2023-08-30T07:19:15;8.80;;;6.10;;
7971;SDS011;4031;49.758;6.120;2023-08-30T07:21:42;8.40;;;5.47;;
7971;SDS011;4031;49.758;6.120;2023-08-30T07:24:08;10.03;;;6.20;;
7971;SDS011;4031;49.758;6.120;2023-08-30T07:26:34;15.63;;;6.93;;
7971;SDS011;4031;49.758;6.120;2023-08-30T07:29:00;7.53;;;5.80;;
7971;SDS011;4031;49.758;6.120;2023-08-30T07:31:26;7.17;;;6.10;;
7971;SDS011;4031;49.758;6.120;2023-08-30T07:33:52;7.57;;;6.50;;
7971;SDS011;4031;49.758;6.120;2023-08-30T07:36:18;5.97;;;5.43;;
7971;SDS011;4031;49.758;6.120;2023-08-30T07:38:43;7.00;;;5.50;;
7971;SDS011;4031;49.758;6.120;2023-08-30T07:41:09;5.70;;;5.10;;
7971;SDS011;4031;49.758;6.120;2023-08-30T07:43:35;6.27;;;5.70;;
7971;SDS011;4031;49.758;6.120;2023-08-30T07:46:01;7.33;;;5.60;;
7971;SDS011;4031;49.758;6.120;2023-08-30T07:48:27;5.87;;;5.27;;
7971;SDS011;4031;49.758;6.120;2023-08-30T07:50:52;5.63;;;5.13;;
7971;SDS011;4031;49.758;6.120;2023-08-30T07:53:18;5.40;;;4.90;;
7971;SDS011;4031;49.758;6.120;2023-08-30T07:55:48;5.80;;;5.30;;
7971;SDS011;4031;49.758;6.120;2023-08-30T07:58:15;5.47;;;4.97;;
7971;SDS011;4031;49.758;6.120;2023-08-30T08:00:42;4.67;;;4.27;;
7971;SDS011;4031;49.758;6.120;2023-08-30T08:03:08;5.87;;;5.10;;
7971;SDS011;4031;49.758;6.120;2023-08-30T08:05:35;4.53;;;4.13;;
7971;SDS011;4031;49.758;6.120;2023-08-30T08:08:02;5.40;;;5.00;;
7971;SDS011;4031;49.758;6.120;2023-08-30T08:10:34;6.07;;;5.40;;
7971;SDS011;4031;49.758;6.120;2023-08-30T08:13:00;5.80;;;5.30;;
7971;SDS011;4031;49.758;6.120;2023-08-30T08:15:28;4.93;;;4.40;;
7971;SDS011;4031;49.758;6.120;2023-08-30T08:17:55;4.03;;;3.73;;
7971;SDS011;4031;49.758;6.120;2023-08-30T08:20:22;5.07;;;4.60;;
7971;SDS011;4031;49.758;6.120;2023-08-30T08:22:47;5.13;;;4.63;;
7971;SDS011;4031;49.758;6.120;2023-08-30T08:25:13;5.47;;;4.87;;
7971;SDS011;4031;49.758;6.120;2023-08-30T08:27:39;4.10;;;3.70;;
7971;SDS011;4031;49.758;6.120;2023-08-30T08:30:05;4.80;;;4.30;;
7971;SDS011;4031;49.758;6.120;2023-08-30T08:32:32;4.03;;;3.73;;
7971;SDS011;4031;49.758;6.120;2023-08-30T08:34:58;4.70;;;3.97;;
7971;SDS011;4031;49.758;6.120;2023-08-30T08:37:24;7.63;;;4.33;;
7971;SDS011;4031;49.758;6.120;2023-08-30T08:39:49;4.47;;;4.07;;
7971;SDS011;4031;49.758;6.120;2023-08-30T08:42:19;4.03;;;3.60;;
7971;SDS011;4031;49.758;6.120;2023-08-30T08:44:49;4.13;;;3.70;;
7971;SDS011;4031;49.758;6.120;2023-08-30T08:47:18;5.70;;;4.07;;
7971;SDS011;4031;49.758;6.120;2023-08-30T08:49:45;3.30;;;3.00;;
7971;SDS011;4031;49.758;6.120;2023-08-30T08:52:13;5.37;;;3.93;;
7971;SDS011;4031;49.758;6.120;2023-08-30T08:54:40;5.33;;;3.00;;
7971;SDS011;4031;49.758;6.120;2023-08-30T08:57:07;4.67;;;2.70;;
7971;SDS011;4031;49.758;6.120;2023-08-30T08:59:33;5.43;;;2.87;;
7971;SDS011;4031;49.758;6.120;2023-08-30T09:01:59;3.40;;;2.73;;
7971;SDS011;4031;49.758;6.120;2023-08-30T09:04:26;2.60;;;2.40;;
7971;SDS011;4031;49.758;6.120;2023-08-30T09:07:00;3.47;;;2.80;;
7971;SDS011;4031;49.758;6.120;2023-08-30T09:09:27;3.00;;;2.70;;
7971;SDS011;4031;49.758;6.120;2023-08-30T09:11:53;3.40;;;2.70;;
7971;SDS011;4031;49.758;6.120;2023-08-30T09:14:19;4.33;;;2.20;;
7971;SDS011;4031;49.758;6.120;2023-08-30T09:16:55;3.07;;;2.47;;
7971;SDS011;4031;49.758;6.120;2023-08-30T09:19:22;3.20;;;2.33;;
7971;SDS011;4031;49.758;6.120;2023-08-30T09:21:57;3.50;;;2.50;;
7971;SDS011;4031;49.758;6.120;2023-08-30T09:24:24;2.97;;;2.47;;
7971;SDS011;4031;49.758;6.120;2023-08-30T09:26:51;3.37;;;2.20;;
7971;SDS011;4031;49.758;6.120;2023-08-30T09:29:19;5.13;;;2.70;;
7971;SDS011;4031;49.758;6.120;2023-08-30T09:31:50;2.80;;;2.37;;
7971;SDS011;4031;49.758;6.120;2023-08-30T09:34:23;2.40;;;2.20;;
7971;SDS011;4031;49.758;6.120;2023-08-30T09:36:52;3.23;;;2.50;;
7971;SDS011;4031;49.758;6.120;2023-08-30T09:39:20;2.63;;;2.23;;
7971;SDS011;4031;49.758;6.120;2023-08-30T09:41:47;4.73;;;2.70;;
7971;SDS011;4031;49.758;6.120;2023-08-30T09:44:15;3.00;;;2.70;;
7971;SDS011;4031;49.758;6.120;2023-08-30T09:46:44;2.53;;;2.00;;
7971;SDS011;4031;49.758;6.120;2023-08-30T09:49:11;2.93;;;2.20;;
7971;SDS011;4031;49.758;6.120;2023-08-30T09:51:38;4.33;;;2.90;;
7971;SDS011;4031;49.758;6.120;2023-08-30T09:54:08;5.90;;;2.60;;
7971;SDS011;4031;49.758;6.120;2023-08-30T09:56:41;3.70;;;2.87;;
7971;SDS011;4031;49.758;6.120;2023-08-30T09:59:09;3.90;;;3.50;;
7971;SDS011;4031;49.758;6.120;2023-08-30T10:01:36;3.67;;;3.20;;
7971;SDS011;4031;49.758;6.120;2023-08-30T10:04:09;3.63;;;3.30;;
7971;SDS011;4031;49.758;6.120;2023-08-30T10:06:36;3.13;;;2.93;;
7971;SDS011;4031;49.758;6.120;2023-08-30T10:09:04;2.83;;;2.57;;
7971;SDS011;4031;49.758;6.120;2023-08-30T10:11:33;3.33;;;3.13;;
7971;SDS011;4031;49.758;6.120;2023-08-30T10:14:03;3.30;;;2.80;;
7971;SDS011;4031;49.758;6.120;2023-08-30T10:16:32;5.20;;;2.90;;
7971;SDS011;4031;49.758;6.120;2023-08-30T10:19:29;3.50;;;3.20;;
7971;SDS011;4031;49.758;6.120;2023-08-30T10:24:27;4.97;;;3.20;;
7971;SDS011;4031;49.758;6.120;2023-08-30T10:26:56;3.80;;;2.47;;
7971;SDS011;4031;49.758;6.120;2023-08-30T10:29:22;3.10;;;2.83;;
7971;SDS011;4031;49.758;6.120;2023-08-30T10:31:51;3.40;;;2.80;;
7971;SDS011;4031;49.758;6.120;2023-08-30T10:34:16;3.50;;;3.20;;
7971;SDS011;4031;49.758;6.120;2023-08-30T10:36:44;3.37;;;3.00;;
7971;SDS011;4031;49.758;6.120;2023-08-30T10:39:13;5.80;;;3.17;;
7971;SDS011;4031;49.758;6.120;2023-08-30T10:41:56;5.20;;;2.53;;
7971;SDS011;4031;49.758;6.120;2023-08-30T10:44:22;3.53;;;3.03;;
7971;SDS011;4031;49.758;6.120;2023-08-30T10:46:55;4.40;;;3.40;;
7971;SDS011;4031;49.758;6.120;2023-08-30T10:49:21;4.07;;;2.80;;
7971;SDS011;4031;49.758;6.120;2023-08-30T10:51:57;2.63;;;2.43;;
7971;SDS011;4031;49.758;6.120;2023-08-30T10:54:26;3.10;;;2.80;;
7971;SDS011;4031;49.758;6.120;2023-08-30T10:57:03;4.33;;;2.97;;
7971;SDS011;4031;49.758;6.120;2023-08-30T10:59:29;3.80;;;2.70;;
7971;SDS011;4031;49.758;6.120;2023-08-30T11:01:55;5.57;;;2.90;;
7971;SDS011;4031;49.758;6.120;2023-08-30T11:04:21;3.80;;;2.40;;
7971;SDS011;4031;49.758;6.120;2023-08-30T11:06:48;3.97;;;2.40;;
7971;SDS011;4031;49.758;6.120;2023-08-30T11:09:17;3.83;;;2.97;;
7971;SDS011;4031;49.758;6.120;2023-08-30T11:11:48;3.07;;;2.77;;
7971;SDS011;4031;49.758;6.120;2023-08-30T11:14:15;3.80;;;3.23;;
7971;SDS011;4031;49.758;6.120;2023-08-30T11:16:42;2.70;;;2.13;;
7971;SDS011;4031;49.758;6.120;2023-08-30T11:19:09;3.87;;;2.90;;
7971;SDS011;4031;49.758;6.120;2023-08-30T11:21:37;2.77;;;2.47;;
7971;SDS011;4031;49.758;6.120;2023-08-30T11:24:05;4.87;;;3.20;;
7971;SDS011;4031;49.758;6.120;2023-08-30T11:26:32;3.30;;;3.00;;
7971;SDS011;4031;49.758;6.120;2023-08-30T11:28:59;3.20;;;2.90;;
7971;SDS011;4031;49.758;6.120;2023-08-30T11:31:30;3.47;;;2.87;;
7971;SDS011;4031;49.758;6.120;2023-08-30T11:33:56;3.43;;;2.80;;
7971;SDS011;4031;49.758;6.120;2023-08-30T11:36:24;6.23;;;3.37;;
7971;SDS011;4031;49.758;6.120;2023-08-30T11:38:54;5.00;;;2.90;;
7971;SDS011;4031;49.758;6.120;2023-08-30T11:41:20;2.73;;;2.50;;
7971;SDS011;4031;49.758;6.120;2023-08-30T11:43:47;4.80;;;3.20;;
7971;SDS011;4031;49.758;6.120;2023-08-30T11:46:13;3.13;;;2.83;;
7971;SDS011;4031;49.758;6.120;2023-08-30T11:48:40;3.70;;;2.73;;
7971;SDS011;4031;49.758;6.120;2023-08-30T11:51:06;3.73;;;3.00;;
7971;SDS011;4031;49.758;6.120;2023-08-30T11:53:33;5.93;;;2.87;;
7971;SDS011;4031;49.758;6.120;2023-08-30T11:55:59;3.23;;;2.93;;
7971;SDS011;4031;49.758;6.120;2023-08-30T11:58:25;2.93;;;2.23;;
7971;SDS011;4031;49.758;6.120;2023-08-30T12:00:52;3.43;;;2.80;;
7971;SDS011;4031;49.758;6.120;2023-08-30T12:03:22;3.53;;;2.97;;
7971;SDS011;4031;49.758;6.120;2023-08-30T12:05:48;3.43;;;2.93;;
7971;SDS011;4031;49.758;6.120;2023-08-30T12:08:26;5.80;;;3.43;;
7971;SDS011;4031;49.758;6.120;2023-08-30T12:10:53;2.73;;;2.53;;
7971;SDS011;4031;49.758;6.120;2023-08-30T12:15:58;3.57;;;2.97;;
7971;SDS011;4031;49.758;6.120;2023-08-30T12:18:25;5.27;;;3.10;;
7971;SDS011;4031;49.758;6.120;2023-08-30T12:20:54;3.50;;;3.20;;
7971;SDS011;4031;49.758;6.120;2023-08-30T12:23:22;4.67;;;3.00;;
7971;SDS011;4031;49.758;6.120;2023-08-30T12:25:58;2.97;;;2.40;;
7971;SDS011;4031;49.758;6.120;2023-08-30T12:28:29;2.87;;;2.63;;
7971;SDS011;4031;49.758;6.120;2023-08-30T12:30:57;2.40;;;2.20;;
7971;SDS011;4031;49.758;6.120;2023-08-30T12:33:24;4.43;;;2.50;;
7971;SDS011;4031;49.758;6.120;2023-08-30T12:35:53;2.33;;;2.13;;
7971;SDS011;4031;49.758;6.120;2023-08-30T12:38:20;3.00;;;2.30;;
7971;SDS011;4031;49.758;6.120;2023-08-30T12:40:47;2.43;;;2.00;;
7971;SDS011;4031;49.758;6.120;2023-08-30T12:43:14;1.90;;;1.80;;
7971;SDS011;4031;49.758;6.120;2023-08-30T12:45:41;2.83;;;2.17;;
7971;SDS011;4031;49.758;6.120;2023-08-30T12:48:09;5.80;;;2.50;;
7971;SDS011;4031;49.758;6.120;2023-08-30T12:50:36;3.43;;;1.60;;
7971;SDS011;4031;49.758;6.120;2023-08-30T12:53:03;2.30;;;2.10;;
7971;SDS011;4031;49.758;6.120;2023-08-30T12:55:30;2.30;;;2.20;;
7971;SDS011;4031;49.758;6.120;2023-08-30T12:57:56;2.90;;;2.50;;
7971;SDS011;4031;49.758;6.120;2023-08-30T13:00:22;2.97;;;2.77;;
7971;SDS011;4031;49.758;6.120;2023-08-30T13:02:48;2.97;;;2.23;;
7971;SDS011;4031;49.758;6.120;2023-08-30T13:05:14;2.73;;;2.03;;
7971;SDS011;4031;49.758;6.120;2023-08-30T13:07:40;2.60;;;2.30;;
7971;SDS011;4031;49.758;6.120;2023-08-30T13:10:07;3.10;;;2.30;;
7971;SDS011;4031;49.758;6.120;2023-08-30T13:12:33;2.00;;;1.90;;
7971;SDS011;4031;49.758;6.120;2023-08-30T13:14:59;2.30;;;2.10;;
7971;SDS011;4031;49.758;6.120;2023-08-30T13:17:24;3.63;;;2.50;;
7971;SDS011;4031;49.758;6.120;2023-08-30T13:19:50;2.30;;;2.00;;
7971;SDS011;4031;49.758;6.120;2023-08-30T13:22:16;2.83;;;2.40;;
7971;SDS011;4031;49.758;6.120;2023-08-30T13:24:43;2.60;;;2.37;;
7971;SDS011;4031;49.758;6.120;2023-08-30T13:27:09;1.70;;;1.60;;
7971;SDS011;4031;49.758;6.120;2023-08-30T13:29:35;1.03;;;0.93;;
7971;SDS011;4031;49.758;6.120;2023-08-30T13:32:01;1.20;;;1.07;;
7971;SDS011;4031;49.758;6.120;2023-08-30T13:34:28;1.40;;;1.30;;
7971;SDS011;4031;49.758;6.120;2023-08-30T13:36:54;1.20;;;1.10;;
7971;SDS011;4031;49.758;6.120;2023-08-30T13:39:19;1.33;;;1.23;;
7971;SDS011;4031;49.758;6.120;2023-08-30T13:41:45;2.00;;;1.10;;
7971;SDS011;4031;49.758;6.120;2023-08-30T13:44:12;1.80;;;1.17;;
7971;SDS011;4031;49.758;6.120;2023-08-30T13:46:39;1.50;;;1.17;;
7971;SDS011;4031;49.758;6.120;2023-08-30T13:49:05;2.57;;;1.57;;
7971;SDS011;4031;49.758;6.120;2023-08-30T13:51:31;1.30;;;1.10;;
7971;SDS011;4031;49.758;6.120;2023-08-30T13:53:56;1.67;;;1.33;;
7971;SDS011;4031;49.758;6.120;2023-08-30T13:56:22;1.77;;;1.20;;
7971;SDS011;4031;49.758;6.120;2023-08-30T13:58:49;1.40;;;1.30;;
7971;SDS011;4031;49.758;6.120;2023-08-30T14:01:15;1.90;;;1.33;;
7971;SDS011;4031;49.758;6.120;2023-08-30T14:03:41;2.23;;;1.30;;
7971;SDS011;4031;49.758;6.120;2023-08-30T14:06:10;1.23;;;1.10;;
7971;SDS011;4031;49.758;6.120;2023-08-30T14:08:36;1.30;;;1.20;;
7971;SDS011;4031;49.758;6.120;2023-08-30T14:11:02;1.47;;;1.20;;
7971;SDS011;4031;49.758;6.120;2023-08-30T14:13:28;1.53;;;1.40;;
7971;SDS011;4031;49.758;6.120;2023-08-30T14:15:58;3.53;;;1.40;;
7971;SDS011;4031;49.758;6.120;2023-08-30T14:18:25;1.60;;;1.30;;
7971;SDS011;4031;49.758;6.120;2023-08-30T14:20:54;1.60;;;1.50;;
7971;SDS011;4031;49.758;6.120;2023-08-30T14:23:27;2.03;;;1.70;;
7971;SDS011;4031;49.758;6.120;2023-08-30T14:26:02;1.20;;;1.10;;
7971;SDS011;4031;49.758;6.120;2023-08-30T14:28:38;1.70;;;1.50;;
7971;SDS011;4031;49.758;6.120;2023-08-30T14:31:08;1.43;;;1.33;;
7971;SDS011;4031;49.758;6.120;2023-08-30T14:33:35;1.40;;;1.20;;
7971;SDS011;4031;49.758;6.120;2023-08-30T14:36:02;3.10;;;1.27;;
7971;SDS011;4031;49.758;6.120;2023-08-30T14:38:28;1.40;;;1.30;;
7971;SDS011;4031;49.758;6.120;2023-08-30T14:40:58;1.63;;;1.53;;
7971;SDS011;4031;49.758;6.120;2023-08-30T14:43:24;1.83;;;1.30;;
7971;SDS011;4031;49.758;6.120;2023-08-30T14:45:50;2.13;;;1.37;;
7971;SDS011;4031;49.758;6.120;2023-08-30T14:48:16;1.10;;;1.00;;
7971;SDS011;4031;49.758;6.120;2023-08-30T14:50:42;1.40;;;1.30;;
7971;SDS011;4031;49.758;6.120;2023-08-30T14:53:08;1.40;;;1.30;;
7971;SDS011;4031;49.758;6.120;2023-08-30T14:55:33;1.50;;;1.40;;
7971;SDS011;4031;49.758;6.120;2023-08-30T14:57:59;1.53;;;1.43;;
7971;SDS011;4031;49.758;6.120;2023-08-30T15:00:25;1.20;;;1.10;;
7971;SDS011;4031;49.758;6.120;2023-08-30T15:02:50;0.90;;;0.90;;
7971;SDS011;4031;49.758;6.120;2023-08-30T15:05:17;1.53;;;1.43;;
7971;SDS011;4031;49.758;6.120;2023-08-30T15:07:42;1.53;;;1.30;;
7971;SDS011;4031;49.758;6.120;2023-08-30T15:10:08;2.03;;;1.10;;
7971;SDS011;4031;49.758;6.120;2023-08-30T15:12:35;1.23;;;1.13;;
7971;SDS011;4031;49.758;6.120;2023-08-30T15:15:02;1.10;;;0.87;;